Time;durP1;ratioP1;P1;durP2;ratioP2;P2;SDS_P1;SDS_P2;PMS_P1;PMS_P2;Temp;Humidity;BMP_temperature;BMP_pressure;BME280_temperature;BME280_humidity;BME280_pressure;Samples;Min_cycle;Max_cycle;Signal;HPM_P1;HPM_P2
2023/10/06 00:00:18;;;;;;;3.03;2.40;;;14.50;99.90;;;;;;5060364;28;20048;-43
2023/10/06 00:02:44;;;;;;;;;;;14.50;99.90;;;;;;5075717;27;20034;-44
2023/10/06 00:05:12;;;;;;;2.92;2.10;;;14.50;99.90;;;;;;5058448;28;19913;-44
2023/10/06 00:07:40;;;;;;;3.58;2.40;;;14.50;99.90;;;;;;5092006;27;20025;-42
2023/10/06 00:10:14;;;;;;;3.35;2.60;;;14.50;99.90;;;;;;5071648;27;20047;-43
2023/10/06 00:12:39;;;;;;;3.28;2.95;;;14.40;99.90;;;;;;5071083;27;20025;-43
2023/10/06 00:15:09;;;;;;;2.95;2.65;;;14.50;99.90;;;;;;5167979;27;20368;-43
2023/10/06 00:17:35;;;;;;;3.35;2.53;;;14.40;99.90;;;;;;5113338;27;20051;-43
2023/10/06 00:20:00;;;;;;;4.50;2.70;;;14.40;99.90;;;;;;5159222;27;20041;-43
2023/10/06 00:22:26;;;;;;;3.50;2.60;;;14.40;99.90;;;;;;5125594;27;20021;-43
2023/10/06 00:24:58;;;;;;;3.15;2.60;;;14.40;99.90;;;;;;5146011;27;20109;-43
2023/10/06 00:27:29;;;;;;;3.00;2.30;;;14.40;99.90;;;;;;5135588;27;20081;-43
2023/10/06 00:29:55;;;;;;;3.83;2.50;;;14.40;99.90;;;;;;5139432;27;20663;-43
2023/10/06 00:32:27;;;;;;;4.13;2.50;;;14.30;99.90;;;;;;5086286;27;20026;-43
2023/10/06 00:35:15;;;;;;;4.07;2.47;;;14.30;99.90;;;;;;5101316;27;20052;-43
2023/10/06 00:37:44;;;;;;;3.38;2.17;;;14.30;99.90;;;;;;5127920;27;20440;-43
2023/10/06 00:40:20;;;;;;;4.50;2.60;;;14.30;99.90;;;;;;5134370;27;20718;-43
2023/10/06 00:42:51;;;;;;;2.58;2.38;;;14.20;99.90;;;;;;5142409;27;20031;-43
2023/10/06 00:45:16;;;;;;;2.40;2.10;;;14.20;99.90;;;;;;5133655;27;20826;-44
2023/10/06 00:47:42;;;;;;;4.78;2.78;;;14.20;99.90;;;;;;5151562;27;20033;-44
2023/10/06 00:50:11;;;;;;;3.55;2.53;;;14.20;99.90;;;;;;5091700;27;20059;-43
2023/10/06 00:52:39;;;;;;;4.40;2.78;;;14.20;99.90;;;;;;5070190;27;20030;-42
2023/10/06 00:55:10;;;;;;;4.45;2.40;;;14.20;99.90;;;;;;5119209;27;20029;-43
2023/10/06 00:57:36;;;;;;;2.80;2.30;;;14.20;99.90;;;;;;5075054;27;20085;-43
2023/10/06 01:00:05;;;;;;;3.67;2.20;;;14.20;99.90;;;;;;5084931;27;20070;-42
2023/10/06 01:02:33;;;;;;;3.45;2.90;;;14.20;99.90;;;;;;5061552;27;20044;-43
2023/10/06 01:05:08;;;;;;;3.28;2.95;;;14.20;99.90;;;;;;5066834;27;20391;-43
2023/10/06 01:07:36;;;;;;;5.32;2.60;;;14.20;99.90;;;;;;5060752;27;20036;-43
2023/10/06 01:10:16;;;;;;;4.53;3.00;;;14.20;99.90;;;;;;5088045;27;20583;-43
2023/10/06 01:12:42;;;;;;;3.00;2.67;;;14.20;99.90;;;;;;5057273;28;20543;-43
2023/10/06 01:15:19;;;;;;;4.07;2.80;;;14.20;99.90;;;;;;5089479;27;20057;-43
2023/10/06 01:17:45;;;;;;;4.55;3.00;;;14.20;99.90;;;;;;5060066;28;20047;-44
2023/10/06 01:20:28;;;;;;;3.70;2.95;;;14.10;99.90;;;;;;5128331;27;20105;-43
2023/10/06 01:22:56;;;;;;;3.95;2.97;;;14.20;99.90;;;;;;5062496;27;20487;-43
2023/10/06 01:25:22;;;;;;;5.05;3.00;;;14.20;99.90;;;;;;5119766;27;20031;-43
2023/10/06 01:27:50;;;;;;;6.25;3.80;;;14.20;99.90;;;;;;5063041;28;20072;-43
2023/10/06 01:32:43;;;;;;;3.60;3.10;;;14.20;99.90;;;;;;5062118;28;20043;-42
2023/10/06 01:35:13;;;;;;;3.47;2.75;;;14.20;99.90;;;;;;5116560;27;20049;-43
2023/10/06 01:37:50;;;;;;;3.65;3.10;;;14.20;99.90;;;;;;5160591;27;20046;-43
2023/10/06 01:40:43;;;;;;;5.70;3.20;;;14.10;99.90;;;;;;5114163;27;20024;-43
2023/10/06 01:43:14;;;;;;;;;;;14.10;99.90;;;;;;5042476;28;20033;-43
2023/10/06 01:48:30;;;;;;;6.38;3.70;;;14.10;99.90;;;;;;5038336;28;20037;-43
2023/10/06 01:50:56;;;;;;;4.38;3.15;;;14.10;99.90;;;;;;5065199;27;20096;-43
2023/10/06 01:53:22;;;;;;;5.97;3.17;;;14.10;99.90;;;;;;5067508;27;20039;-43
2023/10/06 01:55:54;;;;;;;6.03;3.38;;;14.00;99.90;;;;;;5082931;27;20020;-43
2023/10/06 01:58:19;;;;;;;4.13;3.30;;;14.00;99.90;;;;;;5065354;27;20048;-43
2023/10/06 02:00:47;;;;;;;3.53;3.22;;;14.00;99.90;;;;;;5077266;27;20286;-43
2023/10/06 02:03:16;;;;;;;4.07;3.25;;;13.90;99.90;;;;;;5054721;27;20029;-43
2023/10/06 02:05:42;;;;;;;3.63;2.95;;;14.00;99.90;;;;;;5075210;27;20109;-43
2023/10/06 02:08:14;;;;;;;4.28;3.00;;;14.00;99.90;;;;;;5064671;27;20171;-44
2023/10/06 02:10:43;;;;;;;5.85;3.10;;;13.90;99.90;;;;;;5068667;27;20018;-43
2023/10/06 02:13:08;;;;;;;3.40;2.78;;;13.90;99.90;;;;;;5059855;27;20704;-43
2023/10/06 02:15:34;;;;;;;4.57;3.25;;;13.90;99.90;;;;;;5072250;27;20496;-44
2023/10/06 02:18:00;;;;;;;4.50;3.20;;;13.90;99.90;;;;;;5075495;27;20523;-43
2023/10/06 02:22:52;;;;;;;5.13;3.13;;;13.80;99.90;;;;;;5071517;27;20029;-43
2023/10/06 02:25:25;;;;;;;4.13;3.30;;;13.80;99.90;;;;;;5064038;27;20025;-43
2023/10/06 02:27:54;;;;;;;4.05;3.63;;;13.80;99.90;;;;;;5060097;27;20083;-43
2023/10/06 02:30:33;;;;;;;4.43;3.10;;;13.80;99.90;;;;;;5056729;27;20029;-44
2023/10/06 02:32:59;;;;;;;5.63;2.78;;;13.80;99.90;;;;;;5064238;27;20021;-43
2023/10/06 02:35:25;;;;;;;5.18;2.95;;;13.80;99.90;;;;;;5061305;28;20036;-43
2023/10/06 02:37:57;;;;;;;5.03;3.55;;;13.70;99.90;;;;;;5126358;27;20043;-44
2023/10/06 02:40:30;;;;;;;4.70;3.70;;;13.70;99.90;;;;;;5060403;28;20024;-44
2023/10/06 02:42:56;;;;;;;4.68;2.95;;;13.70;99.90;;;;;;5126521;27;20058;-44
2023/10/06 02:45:22;;;;;;;4.63;3.05;;;13.70;99.90;;;;;;5057427;28;20021;-43
2023/10/06 02:47:48;;;;;;;3.38;2.60;;;13.70;99.90;;;;;;5084557;27;20033;-44
2023/10/06 02:50:19;;;;;;;3.83;2.80;;;13.70;99.90;;;;;;5062519;27;20121;-43
2023/10/06 02:52:46;;;;;;;4.25;2.63;;;13.70;99.90;;;;;;5068392;27;20031;-43
2023/10/06 02:55:13;;;;;;;3.28;2.50;;;13.70;99.90;;;;;;5070993;27;20032;-43
2023/10/06 02:57:50;;;;;;;3.88;2.53;;;13.70;99.90;;;;;;5077926;27;20115;-43
2023/10/06 03:02:55;;;;;;;4.32;2.83;;;13.60;99.90;;;;;;5076279;27;20787;-44
2023/10/06 03:05:25;;;;;;;3.10;2.47;;;13.60;99.90;;;;;;5151403;27;20066;-43
2023/10/06 03:07:51;;;;;;;3.83;2.88;;;13.60;99.90;;;;;;5133010;27;20056;-43
2023/10/06 03:10:18;;;;;;;3.35;2.55;;;13.60;99.90;;;;;;5141426;27;20061;-43
2023/10/06 03:12:43;;;;;;;3.55;2.90;;;13.60;99.90;;;;;;5145912;27;20016;-43
2023/10/06 03:15:28;;;;;;;2.83;2.50;;;13.60;99.90;;;;;;5099430;27;20036;-43
2023/10/06 03:17:58;;;;;;;4.22;2.65;;;13.60;99.90;;;;;;5088327;27;20044;-42
2023/10/06 03:20:27;;;;;;;4.28;2.70;;;13.60;99.90;;;;;;5103220;27;20151;-45
2023/10/06 03:22:55;;;;;;;2.92;2.60;;;13.60;99.90;;;;;;5080309;27;20024;-43
2023/10/06 03:25:21;;;;;;;4.13;3.00;;;13.50;99.90;;;;;;5111906;27;20470;-43
2023/10/06 03:27:53;;;;;;;3.55;2.97;;;13.50;99.90;;;;;;5071505;27;20027;-43
2023/10/06 03:30:36;;;;;;;3.55;3.00;;;13.50;99.90;;;;;;5100943;27;20019;-43
2023/10/06 03:33:11;;;;;;;4.13;2.67;;;13.50;99.90;;;;;;5161543;27;20454;-43
2023/10/06 03:35:54;;;;;;;5.63;2.70;;;13.40;99.90;;;;;;5117789;27;20030;-43
2023/10/06 03:40:58;;;;;;;4.28;2.80;;;13.30;99.90;;;;;;5068446;27;20815;-43
2023/10/06 03:46:14;;;;;;;3.38;2.70;;;13.40;99.90;;;;;;5061163;27;20040;-44
2023/10/06 03:48:39;;;;;;;5.93;2.85;;;13.40;99.90;;;;;;5062482;27;20028;-43
2023/10/06 03:51:05;;;;;;;3.30;3.00;;;13.40;99.90;;;;;;5116987;27;20032;-42
2023/10/06 03:53:31;;;;;;;4.95;2.95;;;13.30;99.90;;;;;;5070943;27;20045;-43
2023/10/06 03:55:57;;;;;;;3.92;2.85;;;13.40;99.90;;;;;;5122531;27;20758;-43
2023/10/06 03:58:28;;;;;;;5.53;3.15;;;13.30;99.90;;;;;;5067039;27;20488;-43
2023/10/06 04:00:54;;;;;;;3.70;3.00;;;13.30;99.90;;;;;;5119194;27;20013;-42
2023/10/06 04:03:20;;;;;;;3.80;2.60;;;13.30;99.90;;;;;;5061303;28;20147;-42
2023/10/06 04:05:49;;;;;;;5.80;2.60;;;13.30;99.90;;;;;;5092269;27;20468;-43
2023/10/06 04:08:21;;;;;;;3.72;2.63;;;13.30;99.90;;;;;;5168377;27;20162;-42
2023/10/06 04:10:57;;;;;;;3.85;3.08;;;13.30;99.90;;;;;;5102329;27;20027;-42
2023/10/06 04:13:23;;;;;;;4.50;2.65;;;13.30;99.90;;;;;;5168847;27;20041;-44
2023/10/06 04:15:49;;;;;;;4.15;2.70;;;13.30;99.90;;;;;;5101743;27;20024;-43
2023/10/06 04:18:24;;;;;;;3.17;2.78;;;13.20;99.90;;;;;;5144811;27;20047;-44
2023/10/06 04:20:52;;;;;;;3.97;2.70;;;13.20;99.90;;;;;;5124662;27;20030;-44
2023/10/06 04:23:18;;;;;;;3.20;2.70;;;13.20;99.90;;;;;;5064536;27;20505;-44
2023/10/06 04:25:45;;;;;;;3.95;2.80;;;13.10;99.90;;;;;;5112285;27;20037;-43
2023/10/06 04:28:15;;;;;;;4.72;2.97;;;13.10;99.90;;;;;;5076944;27;20065;-43
2023/10/06 04:30:45;;;;;;;4.80;3.30;;;13.10;99.90;;;;;;5102945;27;20019;-43
2023/10/06 04:33:13;;;;;;;4.90;3.17;;;13.10;99.90;;;;;;5084767;27;20111;-42
2023/10/06 04:35:40;;;;;;;4.03;2.80;;;13.10;99.90;;;;;;5090021;27;20018;-43
2023/10/06 04:38:15;;;;;;;3.90;3.00;;;13.10;99.90;;;;;;5068150;27;20112;-45
2023/10/06 04:40:43;;;;;;;3.40;2.45;;;13.10;99.90;;;;;;5067774;27;20028;-35
2023/10/06 04:43:13;;;;;;;3.83;2.72;;;13.10;99.90;;;;;;5061186;27;20111;-36
2023/10/06 04:45:38;;;;;;;4.10;2.92;;;13.10;99.90;;;;;;5071562;27;20031;-36
2023/10/06 04:48:07;;;;;;;4.38;3.05;;;13.10;99.90;;;;;;5066177;27;20021;-35
2023/10/06 04:50:34;;;;;;;3.97;2.78;;;13.20;99.90;;;;;;5068933;27;20027;-35
2023/10/06 04:53:06;;;;;;;5.55;2.72;;;13.10;99.90;;;;;;5068221;27;20031;-36
2023/10/06 04:55:37;;;;;;;5.10;2.80;;;13.10;99.90;;;;;;5062208;27;20034;-34
2023/10/06 04:58:05;;;;;;;4.63;3.00;;;13.10;99.90;;;;;;5082087;27;20033;-36
2023/10/06 05:00:33;;;;;;;2.88;2.60;;;13.10;99.90;;;;;;5062860;27;20063;-35
2023/10/06 05:02:59;;;;;;;4.13;2.72;;;13.10;99.90;;;;;;5071479;27;20020;-36
2023/10/06 05:05:26;;;;;;;4.97;2.90;;;13.10;99.90;;;;;;5054711;28;20033;-36
2023/10/06 05:07:53;;;;;;;3.00;2.70;;;13.10;99.90;;;;;;5128058;27;20024;-36
2023/10/06 05:10:21;;;;;;;5.13;3.17;;;13.10;99.90;;;;;;5060315;27;20029;-36
2023/10/06 05:12:50;;;;;;;5.75;3.17;;;13.10;99.90;;;;;;5126387;27;20042;-36
2023/10/06 05:15:23;;;;;;;5.10;3.60;;;13.10;99.90;;;;;;5058352;28;20740;-35
2023/10/06 05:17:56;;;;;;;4.60;3.25;;;13.10;99.90;;;;;;5074161;27;20802;-35
2023/10/06 05:20:29;;;;;;;;;;;13.10;99.90;;;;;;5056697;28;20066;-37
2023/10/06 05:23:07;;;;;;;5.03;2.78;;;13.10;99.90;;;;;;5063623;27;19924;-36
2023/10/06 05:25:46;;;;;;;4.72;3.10;;;13.10;99.90;;;;;;5055671;28;20036;-35
2023/10/06 05:28:16;;;;;;;4.03;3.20;;;13.10;99.90;;;;;;5067812;27;20029;-35
2023/10/06 05:30:43;;;;;;;5.13;3.38;;;13.10;99.90;;;;;;5168533;27;20038;-35
2023/10/06 05:33:09;;;;;;;4.20;3.33;;;13.00;99.90;;;;;;5093188;27;20543;-35
2023/10/06 05:35:38;;;;;;;6.18;3.50;;;13.00;99.90;;;;;;5059455;27;20048;-36
2023/10/06 05:38:08;;;;;;;5.05;3.15;;;13.00;99.90;;;;;;5084922;27;20037;-37
2023/10/06 05:40:37;;;;;;;5.03;3.40;;;13.10;99.90;;;;;;5063892;27;20044;-35
2023/10/06 05:43:04;;;;;;;6.28;3.70;;;13.10;99.90;;;;;;5075091;27;20104;-35
2023/10/06 05:45:30;;;;;;;5.88;3.42;;;13.10;99.90;;;;;;5106712;27;20056;-36
2023/10/06 05:47:58;;;;;;;6.15;3.75;;;13.10;99.90;;;;;;5060308;27;20108;-35
2023/10/06 05:50:28;;;;;;;3.55;2.80;;;13.10;99.90;;;;;;5056746;27;20555;-35
2023/10/06 05:53:08;;;;;;;5.63;4.35;;;13.10;99.90;;;;;;5063984;27;20036;-34
2023/10/06 05:55:41;;;;;;;6.32;3.95;;;13.10;99.90;;;;;;5056268;27;20057;-35
2023/10/06 05:58:14;;;;;;;6.35;4.45;;;13.10;99.90;;;;;;5069971;27;20122;-36
2023/10/06 06:00:50;;;;;;;8.30;4.82;;;13.10;99.90;;;;;;5055431;27;20549;-36
2023/10/06 06:03:20;;;;;;;6.38;4.90;;;13.10;99.90;;;;;;5060904;27;20029;-35
2023/10/06 06:05:53;;;;;;;8.13;4.88;;;13.10;99.90;;;;;;5056805;27;20035;-35
2023/10/06 06:08:19;;;;;;;7.55;5.30;;;13.20;99.90;;;;;;5068907;27;20032;-35
2023/10/06 06:10:45;;;;;;;5.18;4.68;;;13.20;99.90;;;;;;5067346;27;20772;-36
2023/10/06 06:13:14;;;;;;;7.40;4.93;;;13.20;99.90;;;;;;5057068;27;20520;-35
2023/10/06 06:15:41;;;;;;;5.68;4.55;;;13.20;99.90;;;;;;5059173;27;20037;-38
2023/10/06 06:18:08;;;;;;;5.13;4.43;;;13.20;99.90;;;;;;5063375;27;20032;-37
2023/10/06 06:20:38;;;;;;;6.88;4.53;;;13.30;99.90;;;;;;5078436;27;20032;-41
2023/10/06 06:23:04;;;;;;;5.78;4.38;;;13.30;99.90;;;;;;5056206;27;20028;-37
2023/10/06 06:25:30;;;;;;;4.82;3.92;;;13.30;99.90;;;;;;5081225;27;20042;-35
2023/10/06 06:27:59;;;;;;;5.40;4.07;;;13.30;99.90;;;;;;5055480;28;20487;-37
2023/10/06 06:30:29;;;;;;;6.63;4.18;;;13.40;99.90;;;;;;5059351;27;20148;-36
2023/10/06 06:32:55;;;;;;;4.97;3.85;;;13.40;99.90;;;;;;5056789;28;20588;-37
2023/10/06 06:35:22;;;;;;;5.82;3.88;;;13.40;99.90;;;;;;5059429;27;20028;-37
2023/10/06 06:37:51;;;;;;;6.03;4.30;;;13.40;99.90;;;;;;5080048;27;20115;-36
2023/10/06 06:40:21;;;;;;;6.93;3.83;;;13.50;99.90;;;;;;5071073;27;20528;-39
2023/10/06 06:42:52;;;;;;;5.78;4.00;;;13.50;99.90;;;;;;5063239;27;20761;-37
2023/10/06 06:45:19;;;;;;;6.53;3.65;;;13.50;99.90;;;;;;5078370;27;20025;-36
2023/10/06 06:47:44;;;;;;;5.00;3.25;;;13.60;99.90;;;;;;5070134;27;20031;-37
2023/10/06 06:50:15;;;;;;;4.95;3.38;;;13.60;99.90;;;;;;5077474;27;20020;-37
2023/10/06 06:52:44;;;;;;;4.50;3.53;;;13.70;99.90;;;;;;5064987;27;20411;-34
2023/10/06 06:55:13;;;;;;;6.05;3.60;;;13.70;99.90;;;;;;5065580;27;20523;-37
2023/10/06 06:57:43;;;;;;;5.35;3.67;;;13.70;99.90;;;;;;5059997;27;20029;-36
2023/10/06 07:00:21;;;;;;;5.72;3.25;;;13.70;99.90;;;;;;5066138;27;20028;-36
2023/10/06 07:02:48;;;;;;;3.92;2.88;;;13.70;99.90;;;;;;5066780;27;20487;-35
2023/10/06 07:05:17;;;;;;;6.10;3.45;;;13.80;99.90;;;;;;5070569;27;20032;-33
2023/10/06 07:07:43;;;;;;;5.90;3.25;;;13.80;99.90;;;;;;5059289;27;20027;-36
2023/10/06 07:10:14;;;;;;;4.72;3.10;;;13.80;99.90;;;;;;5067445;27;20063;-34
2023/10/06 07:12:43;;;;;;;5.78;3.20;;;13.80;99.90;;;;;;5080613;27;20389;-34
2023/10/06 07:15:16;;;;;;;5.78;3.58;;;13.80;99.90;;;;;;5066875;27;20471;-34
2023/10/06 07:17:45;;;;;;;5.80;3.60;;;13.70;99.90;;;;;;5069254;27;20071;-34
2023/10/06 07:20:24;;;;;;;4.22;3.00;;;13.80;99.90;;;;;;5061655;27;20418;-35
2023/10/06 07:22:53;;;;;;;5.50;3.60;;;13.80;99.90;;;;;;5057467;27;20028;-35
2023/10/06 07:25:20;;;;;;;3.72;2.63;;;13.80;99.90;;;;;;5083751;27;20021;-35
2023/10/06 07:27:51;;;;;;;4.45;2.72;;;13.80;99.90;;;;;;5078221;27;20069;-35
2023/10/06 07:30:16;;;;;;;3.60;2.70;;;13.90;99.90;;;;;;5059262;28;20246;-36
2023/10/06 07:32:46;;;;;;;4.78;3.00;;;13.90;99.90;;;;;;5079828;27;20048;-35
2023/10/06 07:35:19;;;;;;;4.20;2.75;;;13.90;99.90;;;;;;5060437;28;20807;-43
2023/10/06 07:37:47;;;;;;;3.08;2.70;;;14.00;99.90;;;;;;5127979;27;20158;-43
2023/10/06 07:40:14;;;;;;;5.97;2.90;;;14.00;99.90;;;;;;5062991;27;20019;-43
2023/10/06 07:42:46;;;;;;;4.13;2.80;;;14.10;99.90;;;;;;5129094;27;20516;-44
2023/10/06 07:45:13;;;;;;;5.78;3.13;;;14.20;99.90;;;;;;5042519;28;20380;-44
2023/10/06 07:47:40;;;;;;;6.00;3.25;;;14.20;99.90;;;;;;5114711;27;20029;-44
2023/10/06 07:50:07;;;;;;;5.10;3.00;;;14.30;99.90;;;;;;5069987;27;20021;-43
2023/10/06 07:52:33;;;;;;;8.55;3.15;;;14.30;99.90;;;;;;5071139;27;20029;-43
2023/10/06 07:55:00;;;;;;;5.03;2.83;;;14.40;99.90;;;;;;5102433;27;20027;-44
2023/10/06 07:57:31;;;;;;;6.32;3.10;;;14.40;99.90;;;;;;5095382;27;20030;-44
2023/10/06 07:59:58;;;;;;;8.43;3.17;;;14.50;99.90;;;;;;5092326;27;20037;-44
2023/10/06 08:02:23;;;;;;;6.35;3.00;;;14.60;99.90;;;;;;5085956;27;20049;-44
2023/10/06 08:04:51;;;;;;;3.95;2.90;;;14.60;99.90;;;;;;5104656;27;20116;-44
2023/10/06 08:07:16;;;;;;;7.97;3.17;;;14.70;99.90;;;;;;5073046;27;20379;-44
2023/10/06 08:09:42;;;;;;;5.43;3.33;;;14.80;99.90;;;;;;5117930;27;20033;-44
2023/10/06 08:12:08;;;;;;;6.15;3.25;;;14.90;99.90;;;;;;5069803;27;20021;-44
2023/10/06 08:14:37;;;;;;;8.25;3.85;;;14.90;99.90;;;;;;5121251;27;20033;-44
2023/10/06 08:17:05;;;;;;;7.50;4.18;;;15.00;99.90;;;;;;5066952;27;20452;-45
2023/10/06 08:19:30;;;;;;;6.28;3.63;;;15.00;99.90;;;;;;5118076;27;20047;-44
2023/10/06 08:22:17;;;;;;;7.22;3.42;;;15.10;99.90;;;;;;5061219;28;20033;-43
2023/10/06 08:24:45;;;;;;;6.00;3.55;;;15.20;99.90;;;;;;5117910;27;20024;-44
2023/10/06 08:27:21;;;;;;;5.30;3.50;;;15.20;99.90;;;;;;5061701;28;20047;-44
2023/10/06 08:29:46;;;;;;;6.32;3.80;;;15.30;99.90;;;;;;5105101;27;20352;-44
2023/10/06 08:32:12;;;;;;;5.07;3.50;;;15.40;99.90;;;;;;5069258;27;20524;-43
2023/10/06 08:34:39;;;;;;;6.25;3.42;;;15.50;99.90;;;;;;5128442;27;20038;-44
2023/10/06 08:37:11;;;;;;;6.78;3.40;;;15.60;99.90;;;;;;5100382;27;20030;-44
2023/10/06 08:39:40;;;;;;;5.00;3.05;;;15.80;99.90;;;;;;5100938;27;20049;-44
2023/10/06 08:42:15;;;;;;;3.55;2.90;;;15.80;99.90;;;;;;5165681;27;20018;-43
2023/10/06 08:44:41;;;;;;;5.55;3.10;;;15.90;99.90;;;;;;5093319;27;20050;-43
2023/10/06 08:47:13;;;;;;;5.43;3.00;;;16.00;99.90;;;;;;5164950;27;20018;-43
2023/10/06 08:49:46;;;;;;;6.20;2.75;;;16.00;99.90;;;;;;5113830;27;20024;-43
2023/10/06 08:52:13;;;;;;;4.78;3.38;;;16.10;99.90;;;;;;5160423;27;20476;-44
2023/10/06 08:54:42;;;;;;;4.50;3.30;;;16.20;99.90;;;;;;5121846;27;20108;-44
2023/10/06 08:57:11;;;;;;;6.40;3.22;;;16.30;99.90;;;;;;5094778;27;20021;-44
2023/10/06 08:59:41;;;;;;;5.07;3.40;;;16.40;99.90;;;;;;5098518;27;20477;-43
2023/10/06 09:02:09;;;;;;;5.47;3.33;;;16.50;99.90;;;;;;5086950;27;20494;-44
2023/10/06 09:04:37;;;;;;;6.00;3.40;;;16.60;99.90;;;;;;5090233;27;20139;-44
2023/10/06 09:07:12;;;;;;;4.32;2.90;;;16.60;99.90;;;;;;5095916;27;20023;-44
2023/10/06 09:09:42;;;;;;;5.10;3.20;;;16.70;99.90;;;;;;5084439;27;20469;-43
2023/10/06 09:12:25;;;;;;;7.05;3.67;;;16.70;99.90;;;;;;5101264;27;20100;-43
2023/10/06 09:14:57;;;;;;;4.72;2.97;;;16.80;99.90;;;;;;5086849;27;20018;-43
2023/10/06 09:17:30;;;;;;;4.80;3.08;;;16.80;99.90;;;;;;5097172;27;20020;-43
2023/10/06 09:19:56;;;;;;;6.45;3.38;;;16.90;99.90;;;;;;5083028;27;20036;-43
2023/10/06 09:22:28;;;;;;;6.40;3.03;;;16.90;99.90;;;;;;5103168;27;20116;-43
2023/10/06 09:25:04;;;;;;;4.43;2.92;;;17.00;99.90;;;;;;5066635;27;20044;-44
2023/10/06 09:27:32;;;;;;;5.20;2.80;;;17.10;99.90;;;;;;5057512;27;20176;-43
2023/10/06 09:29:59;;;;;;;6.90;3.53;;;17.20;99.90;;;;;;5065587;27;20025;-42
2023/10/06 09:32:25;;;;;;;3.97;2.88;;;17.20;99.90;;;;;;5094040;27;20030;-43
2023/10/06 09:34:53;;;;;;;5.47;3.10;;;17.30;99.90;;;;;;5078174;27;20048;-43
2023/10/06 09:37:20;;;;;;;5.07;2.90;;;17.30;99.90;;;;;;5080863;27;20028;-43
2023/10/06 09:39:56;;;;;;;4.68;3.13;;;17.40;99.90;;;;;;5062112;27;20136;-42
2023/10/06 09:42:27;;;;;;;6.68;3.22;;;17.40;99.90;;;;;;5055173;27;20029;-43
2023/10/06 09:45:07;;;;;;;7.15;3.10;;;17.40;99.90;;;;;;5056159;27;20029;-43
2023/10/06 09:47:40;;;;;;;5.97;3.20;;;17.40;99.90;;;;;;5066598;27;20093;-42
2023/10/06 09:50:07;;;;;;;7.60;3.45;;;17.40;99.90;;;;;;5054272;27;20025;-42
2023/10/06 09:52:34;;;;;;;4.93;3.03;;;17.40;99.90;;;;;;5073205;27;20081;-43
2023/10/06 09:55:04;;;;;;;7.20;3.38;;;17.40;99.90;;;;;;5055516;28;20104;-44
2023/10/06 09:57:31;;;;;;;6.85;3.05;;;17.50;99.90;;;;;;5076666;27;20032;-43
2023/10/06 10:00:00;;;;;;;5.35;3.05;;;17.50;99.90;;;;;;5055252;28;20039;-44
2023/10/06 10:02:28;;;;;;;7.78;3.65;;;17.50;99.90;;;;;;5093847;27;20029;-44
2023/10/06 10:04:54;;;;;;;6.40;3.88;;;17.50;99.90;;;;;;5057018;27;20013;-43
2023/10/06 10:07:30;;;;;;;5.05;3.03;;;17.60;99.90;;;;;;5061682;27;20055;-44
2023/10/06 10:09:57;;;;;;;5.10;3.10;;;17.60;99.90;;;;;;5051425;27;20036;-43
2023/10/06 10:12:47;;;;;;;5.57;3.20;;;17.70;99.90;;;;;;5070175;27;20111;-42
2023/10/06 10:15:38;;;;;;;5.63;3.60;;;17.80;99.90;;;;;;5055727;28;20488;-42
2023/10/06 10:18:25;;;;;;;7.07;3.55;;;17.80;99.90;;;;;;5069639;27;20043;-43
2023/10/06 10:20:52;;;;;;;5.82;3.10;;;17.80;99.90;;;;;;5054333;28;20028;-43
2023/10/06 10:23:18;;;;;;;4.75;3.20;;;17.90;99.90;;;;;;5090595;27;20029;-44
2023/10/06 10:25:46;;;;;;;6.32;3.35;;;18.00;99.90;;;;;;5055472;28;20024;-44
2023/10/06 10:28:27;;;;;;;4.85;3.38;;;18.00;99.90;;;;;;5067509;27;20054;-44
2023/10/06 10:30:59;;;;;;;4.78;3.17;;;18.10;99.90;;;;;;5057057;28;20104;-43
2023/10/06 10:33:37;;;;;;;6.63;2.90;;;18.10;99.90;;;;;;5114699;27;20202;-43
2023/10/06 10:36:19;;;;;;;4.78;2.90;;;18.20;99.90;;;;;;5094084;27;20024;-44
2023/10/06 10:38:55;;;;;;;6.82;2.90;;;18.40;99.90;;;;;;5088953;27;20045;-43
2023/10/06 10:41:26;;;;;;;6.10;2.65;;;18.50;99.90;;;;;;5057185;28;20032;-43
2023/10/06 10:43:51;;;;;;;5.78;3.20;;;18.70;99.90;;;;;;5086083;27;20032;-43
2023/10/06 10:46:52;;;;;;;6.55;3.20;;;18.80;99.90;;;;;;5127059;27;20021;-43
2023/10/06 10:49:22;;;;;;;6.45;3.47;;;18.80;99.90;;;;;;5086927;27;20037;-42
2023/10/06 10:52:12;;;;;;;4.78;2.45;;;18.90;99.90;;;;;;5093466;27;20035;-43
2023/10/06 10:54:40;;;;;;;5.80;2.88;;;19.00;99.90;;;;;;5101836;27;20014;-43
2023/10/06 10:57:18;;;;;;;7.03;3.03;;;18.90;99.90;;;;;;5165451;27;20765;-43
2023/10/06 11:02:44;;;;;;;6.38;3.30;;;18.90;99.90;;;;;;5061103;27;20115;-44
2023/10/06 11:05:10;;;;;;;4.50;2.45;;;18.90;99.90;;;;;;5090743;27;20124;-42
2023/10/06 11:07:36;;;;;;;7.28;3.08;;;18.90;99.90;;;;;;5062315;27;20028;-43
2023/10/06 11:10:03;;;;;;;6.75;2.63;;;18.90;99.90;;;;;;5111518;27;20376;-42
2023/10/06 11:12:30;;;;;;;4.53;2.65;;;18.90;99.90;;;;;;5059667;28;20031;-43
2023/10/06 11:15:02;;;;;;;4.40;2.80;;;18.90;99.90;;;;;;5126275;27;20044;-42
2023/10/06 11:17:29;;;;;;;6.90;2.60;;;18.90;99.90;;;;;;5052698;28;20056;-43
2023/10/06 11:20:13;;;;;;;4.93;2.80;;;18.90;99.90;;;;;;5088116;27;20756;-43
2023/10/06 11:22:41;;;;;;;7.68;3.45;;;18.90;99.90;;;;;;5061146;28;20031;-43
2023/10/06 11:25:10;;;;;;;4.05;2.80;;;19.00;99.90;;;;;;5129787;27;20018;-43
2023/10/06 11:27:38;;;;;;;5.50;3.00;;;18.90;99.90;;;;;;5055242;28;20052;-42
2023/10/06 11:30:09;;;;;;;4.75;2.78;;;18.90;99.90;;;;;;5111504;27;20025;-43
2023/10/06 11:32:35;;;;;;;6.85;3.40;;;18.90;99.90;;;;;;5085595;27;20036;-43
2023/10/06 11:35:00;;;;;;;6.20;2.90;;;18.90;99.90;;;;;;5102605;27;20030;-43
2023/10/06 11:37:28;;;;;;;3.78;2.47;;;18.90;99.90;;;;;;5106540;27;20213;-43
2023/10/06 11:39:57;;;;;;;5.40;3.03;;;18.90;99.90;;;;;;5066403;27;20628;-43
2023/10/06 11:42:26;;;;;;;6.70;3.13;;;19.00;99.90;;;;;;5075506;27;20025;-43
2023/10/06 11:44:52;;;;;;;7.38;3.15;;;19.10;99.90;;;;;;5087305;27;20018;-43
2023/10/06 11:47:27;;;;;;;5.25;3.10;;;19.20;99.90;;;;;;5092700;27;20029;-44
2023/10/06 11:49:57;;;;;;;5.22;3.10;;;19.20;99.90;;;;;;5074348;27;20032;-44
2023/10/06 11:52:24;;;;;;;5.20;2.80;;;19.30;99.90;;;;;;5069167;27;20082;-44
2023/10/06 11:54:49;;;;;;;5.72;3.22;;;19.40;99.90;;;;;;5063458;27;20039;-43
2023/10/06 11:57:19;;;;;;;4.07;2.90;;;19.50;99.90;;;;;;5066739;27;20029;-44
2023/10/06 11:59:48;;;;;;;6.05;3.13;;;19.60;99.90;;;;;;5064231;27;20041;-44
2023/10/06 12:02:15;;;;;;;3.55;2.50;;;19.70;99.90;;;;;;5058675;27;20036;-44
2023/10/06 12:04:40;;;;;;;4.32;2.97;;;19.80;99.90;;;;;;5059183;27;20808;-44
2023/10/06 12:07:08;;;;;;;5.15;2.70;;;19.80;99.90;;;;;;5121817;27;20020;-44
2023/10/06 12:09:34;;;;;;;7.18;3.47;;;19.80;99.90;;;;;;5062114;28;20028;-44
2023/10/06 12:12:01;;;;;;;8.35;3.80;;;19.90;99.90;;;;;;5128311;27;20044;-44
2023/10/06 12:14:27;;;;;;;5.63;3.15;;;20.00;99.90;;;;;;5062996;27;20032;-43
2023/10/06 12:16:54;;;;;;;5.28;2.83;;;20.00;99.90;;;;;;5128890;27;20480;-43
2023/10/06 12:19:21;;;;;;;5.78;3.00;;;20.00;99.90;;;;;;5060615;28;20109;-44
2023/10/06 12:21:50;;;;;;;7.55;2.92;;;20.00;99.90;;;;;;5118155;27;20025;-44
2023/10/06 12:24:16;;;;;;;3.97;2.33;;;20.00;99.90;;;;;;5069075;27;20033;-44
2023/10/06 12:26:46;;;;;;;6.68;3.10;;;20.00;99.90;;;;;;5105951;27;20377;-44
2023/10/06 12:29:16;;;;;;;5.93;3.22;;;20.00;99.90;;;;;;5079001;27;20430;-43
2023/10/06 12:31:51;;;;;;;5.72;2.90;;;19.90;99.90;;;;;;5098254;27;20030;-43
2023/10/06 12:34:19;;;;;;;6.53;2.85;;;19.90;99.90;;;;;;5084128;27;20148;-44
2023/10/06 12:36:48;;;;;;;8.25;3.00;;;19.80;99.90;;;;;;5088198;27;20469;-44
2023/10/06 12:39:30;;;;;;;5.78;2.85;;;19.70;99.90;;;;;;5061735;28;20108;-44
2023/10/06 12:41:57;;;;;;;5.40;3.40;;;19.70;99.90;;;;;;5087210;27;20052;-44
2023/10/06 12:44:27;;;;;;;4.75;3.17;;;19.70;99.90;;;;;;5133025;27;20461;-44
2023/10/06 12:46:54;;;;;;;5.05;3.00;;;19.70;99.90;;;;;;5145424;27;20541;-43
2023/10/06 12:49:23;;;;;;;3.95;2.50;;;19.70;99.90;;;;;;5123968;27;20697;-44
2023/10/06 12:51:51;;;;;;;4.47;2.53;;;19.70;99.90;;;;;;5156144;27;20022;-42
2023/10/06 12:54:16;;;;;;;4.88;2.50;;;19.70;99.90;;;;;;5113053;27;20117;-43
2023/10/06 12:56:44;;;;;;;2.97;2.50;;;19.80;99.90;;;;;;5160028;27;20032;-43
2023/10/06 12:59:11;;;;;;;5.43;2.70;;;19.80;99.90;;;;;;5108458;27;20615;-43
2023/10/06 13:01:36;;;;;;;4.53;2.80;;;19.90;99.90;;;;;;5160333;27;20033;-43
2023/10/06 13:04:03;;;;;;;6.50;3.30;;;20.00;99.90;;;;;;5107343;27;20040;-44
2023/10/06 13:06:32;;;;;;;7.05;3.17;;;19.90;99.90;;;;;;5168078;27;20022;-44
2023/10/06 13:09:03;;;;;;;5.30;3.20;;;20.00;99.90;;;;;;5098972;27;20393;-45
2023/10/06 13:11:29;;;;;;;3.63;2.38;;;19.90;99.90;;;;;;5062818;27;20031;-44
2023/10/06 13:14:03;;;;;;;4.47;2.45;;;20.00;99.90;;;;;;5129348;27;20026;-44
2023/10/06 13:16:30;;;;;;;3.40;2.60;;;20.00;99.90;;;;;;5166795;27;20047;-44
2023/10/06 13:18:55;;;;;;;5.53;3.13;;;20.00;99.90;;;;;;5101218;27;20653;-44